Beaver, Oklahoma
Current Conditions -  °F | °C
As of 11:15 AM on Wednesday 26 Nov 2014 (Local Time) from KLBL Reporting Station
Clear Clear  
Wind Chill: 37°   Ceiling: Unl
Heat Index: 45°   Visibility: 10mi
Dew Point: 27°   Wind: 18mph
Humidity: 49%   Direction: 330°NNW
Pressure: 30.29"   Gusts: 29mph
Location:  36.82°N, 100.52°W
Report Text: KLBL 261715Z AUTO 33016G25KT 10SM CLR 07/M03 A3029 RMK AO1
Loading
Personal Weather Stations






























Interactive Weather Map New forecast layout! Learn more

10-Day Weather Forecast

Advertisements
Track Severe Weather on mobile